Time;durP1;ratioP1;P1;durP2;ratioP2;P2;SDS_P1;SDS_P2;PMS_P1;PMS_P2;Temp;Humidity;BMP_temperature;BMP_pressure;BME280_temperature;BME280_humidity;BME280_pressure;Samples;Min_cycle;Max_cycle;Signal;HPM_P1;HPM_P2
2022/12/04 00:02:21;;;;;;;45.00;20.90;;;0.40;99.90;;;;;;5088769;28;20058;-76
2022/12/04 00:04:47;;;;;;;37.77;19.10;;;0.40;99.90;;;;;;5089606;28;20020;-77
2022/12/04 00:07:13;;;;;;;38.27;19.33;;;0.40;99.90;;;;;;5089745;28;20085;-77
2022/12/04 00:09:39;;;;;;;34.93;19.33;;;0.50;99.90;;;;;;5089705;28;20024;-77
2022/12/04 00:12:05;;;;;;;39.03;20.03;;;0.50;99.90;;;;;;5089111;28;20425;-76
2022/12/04 00:14:30;;;;;;;42.57;21.50;;;0.50;99.90;;;;;;5089795;28;20084;-77
2022/12/04 00:16:56;;;;;;;41.77;20.07;;;0.50;99.90;;;;;;5087796;28;20036;-77
2022/12/04 00:19:21;;;;;;;42.87;19.50;;;0.40;99.90;;;;;;5089005;28;20110;-76
2022/12/04 00:21:49;;;;;;;43.73;21.13;;;0.40;99.90;;;;;;5089943;28;20059;-76
2022/12/04 00:24:15;;;;;;;45.50;21.47;;;0.40;99.90;;;;;;5090276;28;20042;-76
2022/12/04 00:26:40;;;;;;;56.23;26.23;;;0.40;99.90;;;;;;5089843;28;20763;-76
2022/12/04 00:29:06;;;;;;;52.67;25.30;;;0.40;99.90;;;;;;5089660;28;20028;-76
2022/12/04 00:31:32;;;;;;;53.10;25.57;;;0.40;99.90;;;;;;5088682;28;20468;-77
2022/12/04 00:33:58;;;;;;;39.87;21.60;;;0.40;99.90;;;;;;5089063;28;20032;-77
2022/12/04 00:36:26;;;;;;;46.73;21.80;;;0.40;99.90;;;;;;5089948;28;20043;-77
2022/12/04 00:38:52;;;;;;;49.37;23.87;;;0.40;99.90;;;;;;5089613;28;20031;-76
2022/12/04 00:41:22;;;;;;;49.30;24.30;;;0.40;99.90;;;;;;5089158;28;20542;-77
2022/12/04 00:43:48;;;;;;;73.93;35.67;;;0.50;99.90;;;;;;5089437;28;20020;-76
2022/12/04 00:46:14;;;;;;;47.47;23.07;;;0.50;99.90;;;;;;5089579;28;20164;-76
2022/12/04 00:48:41;;;;;;;44.97;21.87;;;0.50;99.90;;;;;;5089305;28;20062;-76
2022/12/04 00:51:12;;;;;;;49.93;23.67;;;0.50;99.90;;;;;;5089489;28;20115;-76
2022/12/04 00:53:38;;;;;;;46.83;22.17;;;0.50;99.90;;;;;;5087670;28;20040;-77
2022/12/04 00:56:09;;;;;;;48.40;23.47;;;0.50;99.90;;;;;;5089275;28;20035;-76
2022/12/04 00:58:35;;;;;;;85.50;41.93;;;0.50;99.90;;;;;;5088755;28;20039;-77
2022/12/04 01:01:07;;;;;;;51.43;25.10;;;0.40;99.90;;;;;;5088918;28;20036;-77
2022/12/04 01:03:34;;;;;;;70.13;34.87;;;0.40;99.90;;;;;;5088257;28;20059;-77
2022/12/04 01:06:01;;;;;;;72.63;35.43;;;0.50;99.90;;;;;;5089179;28;20034;-77
2022/12/04 01:08:27;;;;;;;45.33;22.20;;;0.40;99.90;;;;;;5088366;28;20051;-77
2022/12/04 01:10:52;;;;;;;45.90;20.47;;;0.40;99.90;;;;;;5089003;28;20719;-77
2022/12/04 01:13:18;;;;;;;60.07;27.73;;;0.40;99.90;;;;;;5088104;28;20036;-77
2022/12/04 01:15:46;;;;;;;48.20;23.47;;;0.40;99.90;;;;;;5089600;28;20046;-77
2022/12/04 01:18:12;;;;;;;57.83;25.60;;;0.40;99.90;;;;;;5087455;28;20044;-77
2022/12/04 01:20:37;;;;;;;52.10;23.30;;;0.40;99.90;;;;;;5087920;28;20043;-76
2022/12/04 01:23:03;;;;;;;63.37;29.53;;;0.30;99.90;;;;;;5088425;28;20024;-76
2022/12/04 01:25:29;;;;;;;65.10;29.40;;;0.40;99.90;;;;;;5088514;28;20550;-76
2022/12/04 01:27:54;;;;;;;48.80;22.93;;;0.40;99.90;;;;;;5087992;28;20496;-76
2022/12/04 01:30:20;;;;;;;48.97;22.83;;;0.40;99.90;;;;;;5088408;28;20112;-76
2022/12/04 01:32:45;;;;;;;48.50;22.87;;;0.40;99.90;;;;;;5087401;28;20060;-76
2022/12/04 01:35:11;;;;;;;60.77;28.50;;;0.40;99.90;;;;;;5088882;28;20081;-76
2022/12/04 01:37:37;;;;;;;48.60;22.93;;;0.40;99.90;;;;;;5087367;28;20040;-76
2022/12/04 01:40:03;;;;;;;44.60;20.70;;;0.40;99.90;;;;;;5088138;28;20125;-76
2022/12/04 01:42:28;;;;;;;42.47;21.33;;;0.40;99.90;;;;;;5087712;28;20034;-76
2022/12/04 01:45:32;;;;;;;47.83;23.53;;;0.40;99.90;;;;;;5088021;28;20017;-76
2022/12/04 01:48:12;;;;;;;45.40;22.13;;;0.50;99.90;;;;;;5088136;28;20020;-76
2022/12/04 01:50:38;;;;;;;47.80;24.40;;;0.50;99.90;;;;;;5088792;28;20099;-76
2022/12/04 01:53:04;;;;;;;43.57;22.07;;;0.50;99.90;;;;;;5088713;28;20465;-76
2022/12/04 01:55:30;;;;;;;36.03;18.27;;;0.50;99.90;;;;;;5090744;28;20032;-77
2022/12/04 01:57:57;;;;;;;36.17;20.57;;;0.50;99.90;;;;;;5090844;28;20047;-76
2022/12/04 02:00:23;;;;;;;37.00;19.43;;;0.50;99.90;;;;;;5091356;28;20416;-77
2022/12/04 02:02:48;;;;;;;39.60;20.20;;;0.50;99.90;;;;;;5090654;28;20073;-76
2022/12/04 02:05:18;;;;;;;37.77;18.70;;;0.50;99.90;;;;;;5090091;28;20028;-77
2022/12/04 02:07:47;;;;;;;43.57;24.40;;;0.50;99.90;;;;;;5089053;28;20031;-76
2022/12/04 02:10:13;;;;;;;41.23;18.77;;;0.50;99.90;;;;;;5091925;28;20027;-77
2022/12/04 02:13:10;;;;;;;40.10;19.67;;;0.50;99.90;;;;;;5091364;28;20110;-77
2022/12/04 02:15:46;;;;;;;40.23;19.40;;;0.50;99.90;;;;;;5090860;28;20032;-75
2022/12/04 02:18:33;;;;;;;37.20;19.33;;;0.50;99.90;;;;;;5090946;28;20055;-74
2022/12/04 02:21:01;;;;;;;40.37;19.93;;;0.40;99.90;;;;;;5089006;28;20024;-74
2022/12/04 02:23:52;;;;;;;41.33;19.67;;;0.50;99.90;;;;;;5090245;28;20028;-74
2022/12/04 02:26:29;;;;;;;43.87;20.90;;;0.40;99.90;;;;;;5088901;28;20020;-75
2022/12/04 02:29:01;;;;;;;37.90;19.60;;;0.40;99.90;;;;;;5089845;28;20095;-74
2022/12/04 02:32:01;;;;;;;37.40;19.40;;;0.40;99.90;;;;;;5090616;28;20036;-74
2022/12/04 02:34:57;;;;;;;38.53;19.63;;;0.40;99.90;;;;;;5088676;28;20373;-74
2022/12/04 02:37:44;;;;;;;37.00;18.17;;;0.40;99.90;;;;;;5083242;28;20074;-74
2022/12/04 02:40:21;;;;;;;34.57;18.77;;;0.40;99.90;;;;;;5089510;28;20067;-74
2022/12/04 02:43:02;;;;;;;33.70;17.60;;;0.40;99.90;;;;;;5088395;28;20546;-74
2022/12/04 02:45:40;;;;;;;35.90;19.07;;;0.40;99.90;;;;;;5090762;28;20027;-74
2022/12/04 02:48:07;;;;;;;35.63;18.53;;;0.40;99.90;;;;;;5091224;28;20361;-74
2022/12/04 02:50:39;;;;;;;37.37;18.07;;;0.40;99.90;;;;;;5089951;28;20110;-74
2022/12/04 02:53:13;;;;;;;37.53;19.37;;;0.40;99.90;;;;;;5090638;28;20106;-74
2022/12/04 02:55:44;;;;;;;37.53;18.37;;;0.30;99.90;;;;;;5089996;28;20040;-74
2022/12/04 02:58:20;;;;;;;33.10;17.90;;;0.30;99.90;;;;;;5090612;28;20056;-74
2022/12/04 03:00:47;;;;;;;35.27;18.80;;;0.30;99.90;;;;;;5090328;28;20024;-74
2022/12/04 03:03:22;;;;;;;36.77;18.53;;;0.30;99.90;;;;;;5090681;28;20020;-74
2022/12/04 03:06:09;;;;;;;38.83;19.45;;;0.30;99.90;;;;;;5088770;28;20077;-74
2022/12/04 03:08:51;;;;;;;37.70;19.77;;;0.30;99.90;;;;;;5090035;28;20031;-74
2022/12/04 03:11:17;;;;;;;41.17;20.03;;;0.30;99.90;;;;;;5090711;28;20390;-74
2022/12/04 03:14:00;;;;;;;41.23;20.17;;;0.30;99.90;;;;;;5089366;28;20020;-74
2022/12/04 03:16:32;;;;;;;36.27;19.67;;;0.30;99.90;;;;;;5089756;28;20464;-74
2022/12/04 03:19:13;;;;;;;31.87;17.17;;;0.30;99.90;;;;;;5086446;28;20123;-73
2022/12/04 03:21:45;;;;;;;34.53;18.77;;;0.20;99.90;;;;;;5093531;28;20031;-74
2022/12/04 03:24:21;;;;;;;33.63;18.40;;;0.20;99.90;;;;;;5094222;28;20085;-73
2022/12/04 03:26:54;;;;;;;36.33;19.10;;;0.20;99.90;;;;;;5092901;28;20422;-74
2022/12/04 03:29:30;;;;;;;36.83;18.87;;;0.30;99.90;;;;;;5093241;28;20422;-74
2022/12/04 03:32:10;;;;;;;39.07;20.70;;;0.20;99.90;;;;;;5092092;28;20019;-74
2022/12/04 03:35:05;;;;;;;40.63;20.70;;;0.20;99.90;;;;;;5093112;28;20042;-74
2022/12/04 03:37:38;;;;;;;42.50;21.73;;;0.20;99.90;;;;;;5079223;28;20050;-74
2022/12/04 03:40:32;;;;;;;46.03;21.83;;;0.20;99.90;;;;;;5093568;28;20028;-74
2022/12/04 03:43:18;;;;;;;38.17;19.73;;;0.20;99.90;;;;;;5087088;28;20121;-74
2022/12/04 03:45:53;;;;;;;;;;;0.30;99.90;;;;;;5093714;28;20059;-74
2022/12/04 03:48:33;;;;;;;40.35;20.48;;;0.20;99.90;;;;;;5092592;28;19908;-74
2022/12/04 03:51:06;;;;;;;41.37;20.53;;;0.30;99.90;;;;;;5092975;28;20116;-74
2022/12/04 03:53:49;;;;;;;43.00;21.63;;;0.30;99.90;;;;;;5092188;28;20024;-74
2022/12/04 03:56:17;;;;;;;43.07;21.97;;;0.30;99.90;;;;;;5092828;28;20040;-74
2022/12/04 03:58:48;;;;;;;42.17;21.40;;;0.30;99.90;;;;;;5090092;28;20020;-74
2022/12/04 04:01:17;;;;;;;45.23;20.63;;;0.30;99.90;;;;;;5091067;28;20024;-74
2022/12/04 04:03:48;;;;;;;43.90;21.87;;;0.30;99.90;;;;;;5093351;28;20070;-74
2022/12/04 04:06:30;;;;;;;44.53;21.60;;;0.30;99.90;;;;;;5093327;28;20083;-74
2022/12/04 04:08:59;;;;;;;43.80;21.73;;;0.30;99.90;;;;;;5092885;28;20108;-74
2022/12/04 04:11:28;;;;;;;49.97;23.83;;;0.30;99.90;;;;;;5092820;28;20016;-74
2022/12/04 04:25:36;;;;;;;35.60;18.80;;;0.30;99.90;;;;;;5093394;28;20028;-74
2022/12/04 04:28:02;;;;;;;36.53;19.00;;;0.30;99.90;;;;;;5091053;28;20362;-74
2022/12/04 04:30:30;;;;;;;37.43;20.00;;;0.30;99.90;;;;;;5093099;28;20031;-74
2022/12/04 04:33:07;;;;;;;36.37;18.97;;;0.30;99.90;;;;;;5091162;28;20041;-75
2022/12/04 04:35:51;;;;;;;34.97;18.17;;;0.30;99.90;;;;;;5091982;28;20028;-74
2022/12/04 04:38:24;;;;;;;30.37;16.83;;;0.40;99.90;;;;;;5090367;28;20024;-74
2022/12/04 04:41:00;;;;;;;33.47;17.63;;;0.30;99.90;;;;;;5091657;28;20026;-74
2022/12/04 04:43:43;;;;;;;36.33;18.50;;;0.40;99.90;;;;;;5092047;28;20036;-74
2022/12/04 04:46:28;;;;;;;39.10;18.23;;;0.30;99.90;;;;;;5091884;28;20107;-74
2022/12/04 04:48:59;;;;;;;36.03;18.23;;;0.30;99.90;;;;;;5091802;28;20095;-74
2022/12/04 04:51:26;;;;;;;38.50;19.60;;;0.30;99.90;;;;;;5092945;28;20040;-74
2022/12/04 04:53:56;;;;;;;38.23;19.60;;;0.30;99.90;;;;;;5091569;28;20759;-74
2022/12/04 04:56:22;;;;;;;37.43;18.87;;;0.30;99.90;;;;;;5091445;28;20020;-74
2022/12/04 04:58:48;;;;;;;37.97;19.17;;;0.30;99.90;;;;;;5091744;28;20103;-74
2022/12/04 05:01:16;;;;;;;38.70;20.10;;;0.30;99.90;;;;;;5092069;28;20080;-75
2022/12/04 05:03:42;;;;;;;36.77;19.23;;;0.30;99.90;;;;;;5091534;28;20100;-74
2022/12/04 05:06:08;;;;;;;38.60;19.63;;;0.30;99.90;;;;;;5092201;28;20020;-74
2022/12/04 05:08:35;;;;;;;36.23;17.70;;;0.30;99.90;;;;;;5091241;28;20020;-74
2022/12/04 05:11:00;;;;;;;38.47;19.70;;;0.30;99.90;;;;;;5091216;28;20028;-74
2022/12/04 05:13:28;;;;;;;39.97;19.53;;;0.30;99.90;;;;;;5092302;28;20077;-74
2022/12/04 05:16:01;;;;;;;35.60;17.97;;;0.30;99.90;;;;;;5091706;28;20028;-74
2022/12/04 05:18:27;;;;;;;37.60;19.43;;;0.30;99.90;;;;;;5090858;28;20426;-74
2022/12/04 05:20:53;;;;;;;37.57;20.00;;;0.30;99.90;;;;;;5092419;28;20039;-74
2022/12/04 05:23:19;;;;;;;36.80;18.40;;;0.30;99.90;;;;;;5092334;28;20028;-74
2022/12/04 05:25:45;;;;;;;34.70;21.13;;;0.40;99.90;;;;;;5091298;28;21287;-74
2022/12/04 05:28:11;;;;;;;72.63;50.03;;;0.40;99.90;;;;;;5089533;28;20035;-75
2022/12/04 05:30:37;;;;;;;36.17;18.97;;;0.40;99.90;;;;;;5091820;28;20020;-74
2022/12/04 05:33:02;;;;;;;152.73;73.27;;;0.40;99.90;;;;;;5091609;28;20028;-74
2022/12/04 05:35:28;;;;;;;66.33;33.13;;;0.30;99.90;;;;;;5091797;28;20028;-74
2022/12/04 05:37:53;;;;;;;48.00;32.77;;;0.40;99.90;;;;;;5091774;28;20032;-74
2022/12/04 05:40:19;;;;;;;38.30;20.07;;;0.30;99.90;;;;;;5091580;28;20035;-74
2022/12/04 05:42:45;;;;;;;48.57;24.30;;;0.30;99.90;;;;;;5091794;28;20050;-74
2022/12/04 05:45:10;;;;;;;47.57;27.77;;;0.40;99.90;;;;;;5089719;28;20447;-74
2022/12/04 05:47:43;;;;;;;49.20;27.97;;;0.40;99.90;;;;;;5087911;28;20064;-74
2022/12/04 05:50:11;;;;;;;42.87;24.53;;;0.40;99.90;;;;;;5088055;28;20380;-74
2022/12/04 05:52:37;;;;;;;46.87;24.63;;;0.30;99.90;;;;;;5091065;28;20020;-74
2022/12/04 05:55:03;;;;;;;41.90;21.73;;;0.40;99.90;;;;;;5090886;28;20030;-74
2022/12/04 05:57:28;;;;;;;41.87;22.23;;;0.30;99.90;;;;;;5088590;28;20024;-74
2022/12/04 05:59:54;;;;;;;46.23;28.77;;;0.30;99.90;;;;;;5087001;28;20857;-74
2022/12/04 06:02:19;;;;;;;39.53;21.80;;;0.30;99.90;;;;;;5088766;28;20020;-74
2022/12/04 06:04:45;;;;;;;42.33;23.83;;;0.30;99.90;;;;;;5090747;28;20028;-74
2022/12/04 06:07:11;;;;;;;35.53;19.33;;;0.30;99.90;;;;;;5088723;28;20046;-74
2022/12/04 06:09:37;;;;;;;62.63;36.07;;;0.30;99.90;;;;;;5090014;28;20023;-74
2022/12/04 06:12:03;;;;;;;66.97;35.97;;;0.30;99.90;;;;;;5090272;28;20034;-74
2022/12/04 06:14:28;;;;;;;50.23;26.73;;;0.30;99.90;;;;;;5088518;28;20021;-75
2022/12/04 06:16:54;;;;;;;41.00;22.57;;;0.30;99.90;;;;;;5090341;28;20436;-75
2022/12/04 06:19:21;;;;;;;38.73;19.87;;;0.40;99.90;;;;;;5090009;28;20031;-74
2022/12/04 06:21:50;;;;;;;70.00;35.50;;;0.30;99.90;;;;;;5088623;28;20081;-74
2022/12/04 06:24:20;;;;;;;36.87;20.40;;;0.30;99.90;;;;;;5088821;28;20075;-74
2022/12/04 06:26:46;;;;;;;36.70;19.80;;;0.30;99.90;;;;;;5088919;28;20036;-74
2022/12/04 06:29:12;;;;;;;36.57;19.00;;;0.30;99.90;;;;;;5089939;28;20020;-74
2022/12/04 06:31:39;;;;;;;39.53;21.37;;;0.30;99.90;;;;;;5090354;28;20028;-74
2022/12/04 06:34:07;;;;;;;57.17;35.37;;;0.30;99.90;;;;;;5089010;28;20032;-74
2022/12/04 06:36:33;;;;;;;54.23;32.37;;;0.30;99.90;;;;;;5090282;28;20024;-74
2022/12/04 06:38:58;;;;;;;45.80;26.57;;;0.40;99.90;;;;;;5089030;28;20028;-77
2022/12/04 06:41:25;;;;;;;35.83;20.67;;;0.30;99.90;;;;;;5085592;28;20055;-77
2022/12/04 06:43:51;;;;;;;53.80;33.90;;;0.30;99.90;;;;;;5085844;28;20051;-77
2022/12/04 06:46:23;;;;;;;39.83;23.00;;;0.40;99.90;;;;;;5086512;28;20024;-77
2022/12/04 06:48:49;;;;;;;34.00;19.97;;;0.40;99.90;;;;;;5085759;28;20031;-77
2022/12/04 06:51:23;;;;;;;32.23;18.47;;;0.40;99.90;;;;;;5086379;28;20024;-77
2022/12/04 06:53:49;;;;;;;108.53;50.47;;;0.40;99.90;;;;;;5085369;28;20039;-77
2022/12/04 06:56:17;;;;;;;54.80;31.00;;;0.40;99.90;;;;;;5082623;28;20024;-77
2022/12/04 06:58:47;;;;;;;72.13;52.30;;;0.40;99.90;;;;;;5084254;28;20074;-77
2022/12/04 07:01:15;;;;;;;37.27;22.57;;;0.30;99.90;;;;;;5085565;28;20055;-82
2022/12/04 07:03:42;;;;;;;35.80;20.70;;;0.40;99.90;;;;;;5088118;28;20031;-77
2022/12/04 07:06:14;;;;;;;40.70;23.80;;;0.40;99.90;;;;;;5099385;28;20170;-78
2022/12/04 07:08:40;;;;;;;43.23;27.20;;;0.40;99.90;;;;;;5094932;28;20024;-78
2022/12/04 07:11:06;;;;;;;34.43;18.43;;;0.40;99.90;;;;;;5099750;28;20036;-78
2022/12/04 07:13:32;;;;;;;36.80;20.03;;;0.40;99.90;;;;;;5096404;28;20102;-75
2022/12/04 07:16:06;;;;;;;40.87;22.07;;;0.40;99.90;;;;;;5095713;28;20034;-75
2022/12/04 07:18:33;;;;;;;38.10;19.42;;;0.40;99.90;;;;;;5089942;28;20051;-75
2022/12/04 07:20:58;;;;;;;36.60;19.93;;;0.40;99.90;;;;;;5096438;28;20046;-75
2022/12/04 07:23:24;;;;;;;37.73;21.97;;;0.40;99.90;;;;;;5098645;28;20424;-75
2022/12/04 07:25:50;;;;;;;38.47;21.07;;;0.40;99.90;;;;;;5097059;28;20028;-75
2022/12/04 07:28:15;;;;;;;44.93;19.80;;;0.40;99.90;;;;;;5094059;28;20020;-75
2022/12/04 07:30:41;;;;;;;42.10;21.30;;;0.40;99.90;;;;;;5094957;28;20055;-77
2022/12/04 07:33:06;;;;;;;51.43;23.97;;;0.50;99.90;;;;;;5084100;28;20024;-75
2022/12/04 07:35:32;;;;;;;40.33;21.47;;;0.40;99.90;;;;;;5084554;28;20069;-75
2022/12/04 07:37:58;;;;;;;61.03;21.20;;;0.50;99.90;;;;;;5084181;28;20112;-74
2022/12/04 07:40:24;;;;;;;40.77;20.67;;;0.50;99.90;;;;;;5083664;28;20465;-74
2022/12/04 07:42:49;;;;;;;45.00;20.47;;;0.50;99.90;;;;;;5083689;28;20259;-74
2022/12/04 07:45:15;;;;;;;47.40;22.33;;;0.50;99.90;;;;;;5084674;28;20032;-74
2022/12/04 07:47:41;;;;;;;46.03;22.43;;;0.50;99.90;;;;;;5083802;28;20016;-74
2022/12/04 07:50:06;;;;;;;76.73;22.20;;;0.50;99.90;;;;;;5084567;28;20054;-75
2022/12/04 07:52:36;;;;;;;56.83;22.77;;;0.50;99.90;;;;;;5084129;28;20060;-75
2022/12/04 07:55:03;;;;;;;48.50;20.77;;;0.50;99.90;;;;;;5083241;28;20489;-75
2022/12/04 07:57:29;;;;;;;43.77;20.93;;;0.60;99.90;;;;;;5079005;28;20052;-78
2022/12/04 07:59:54;;;;;;;48.30;21.27;;;0.60;99.90;;;;;;5075854;28;20614;-79
2022/12/04 08:02:20;;;;;;;44.97;22.03;;;0.60;99.90;;;;;;5076170;28;20035;-79
2022/12/04 08:04:46;;;;;;;42.30;20.50;;;0.60;99.90;;;;;;5078870;28;20028;-79
2022/12/04 08:07:11;;;;;;;52.50;21.53;;;0.60;99.90;;;;;;5080177;28;20021;-79
2022/12/04 08:09:37;;;;;;;53.37;23.07;;;0.70;99.90;;;;;;5082480;28;20563;-78
2022/12/04 08:12:03;;;;;;;55.93;24.20;;;0.60;99.90;;;;;;5083218;28;20093;-79
2022/12/04 08:14:28;;;;;;;56.50;22.63;;;0.60;99.90;;;;;;5084714;28;20048;-82
2022/12/04 08:16:54;;;;;;;49.40;23.90;;;0.70;99.90;;;;;;5083399;28;20043;-80
2022/12/04 08:19:20;;;;;;;47.40;24.10;;;0.70;99.90;;;;;;5081191;28;20072;-81
2022/12/04 08:21:46;;;;;;;61.73;23.77;;;0.70;99.90;;;;;;5080070;28;20039;-81
2022/12/04 08:24:12;;;;;;;45.70;22.17;;;0.70;99.90;;;;;;5081277;28;20031;-81
2022/12/04 08:26:37;;;;;;;47.43;22.07;;;0.70;99.90;;;;;;5081597;28;20088;-81
2022/12/04 08:29:03;;;;;;;51.33;23.97;;;0.70;99.90;;;;;;5081385;28;20120;-81
2022/12/04 08:31:31;;;;;;;45.70;22.87;;;0.70;99.90;;;;;;5081036;28;20031;-81
2022/12/04 08:33:58;;;;;;;50.03;22.73;;;0.80;99.90;;;;;;5081546;28;20032;-81
2022/12/04 08:36:25;;;;;;;45.43;22.37;;;0.80;99.90;;;;;;5081598;28;20036;-81
2022/12/04 08:38:51;;;;;;;43.07;21.33;;;0.70;99.90;;;;;;5081061;28;20028;-81
2022/12/04 08:41:20;;;;;;;37.47;19.97;;;0.70;99.90;;;;;;5073365;28;20370;-81
2022/12/04 08:43:46;;;;;;;40.73;20.87;;;0.80;99.90;;;;;;5076543;28;20171;-81
2022/12/04 08:46:14;;;;;;;41.20;20.57;;;0.80;99.90;;;;;;5076032;28;20028;-81
2022/12/04 08:48:40;;;;;;;37.27;20.60;;;0.80;99.90;;;;;;5075872;28;20048;-81
2022/12/04 08:51:11;;;;;;;37.60;19.77;;;0.80;99.90;;;;;;5075187;28;20119;-80
2022/12/04 08:53:36;;;;;;;55.93;24.67;;;0.90;99.90;;;;;;5076031;28;20626;-81
2022/12/04 08:56:03;;;;;;;39.07;22.30;;;0.90;99.90;;;;;;5076473;28;20066;-81
2022/12/04 08:58:29;;;;;;;41.90;20.70;;;1.00;99.90;;;;;;5076131;28;20028;-81
2022/12/04 09:00:54;;;;;;;60.77;21.70;;;1.00;99.90;;;;;;5080093;28;20101;-76
2022/12/04 09:03:21;;;;;;;57.40;24.50;;;1.00;99.90;;;;;;5085318;28;21472;-77
2022/12/04 09:05:47;;;;;;;41.40;21.87;;;1.00;99.90;;;;;;5085125;28;20903;-77
2022/12/04 09:08:14;;;;;;;58.40;22.40;;;1.00;99.90;;;;;;5086901;28;20024;-77
2022/12/04 09:10:41;;;;;;;48.90;21.93;;;1.00;99.90;;;;;;5088154;28;20031;-77
2022/12/04 09:13:07;;;;;;;50.80;22.03;;;1.00;99.90;;;;;;5087943;28;20036;-77
2022/12/04 09:15:33;;;;;;;45.13;22.30;;;1.00;99.90;;;;;;5087778;28;20077;-77
2022/12/04 09:17:58;;;;;;;59.97;21.03;;;1.10;99.90;;;;;;5088012;28;20054;-77
2022/12/04 09:20:24;;;;;;;54.17;22.03;;;1.10;99.90;;;;;;5087012;28;20036;-77
2022/12/04 09:22:50;;;;;;;46.17;22.57;;;1.10;99.90;;;;;;5088474;28;20040;-77
2022/12/04 09:25:16;;;;;;;42.43;22.10;;;1.20;99.90;;;;;;5088557;28;20031;-77
2022/12/04 09:27:42;;;;;;;60.83;22.43;;;1.20;99.90;;;;;;5087737;28;20451;-77
2022/12/04 09:30:11;;;;;;;60.50;22.67;;;1.20;99.90;;;;;;5087756;28;20062;-76
2022/12/04 09:32:37;;;;;;;45.77;21.90;;;1.30;99.90;;;;;;5089246;28;20111;-78
2022/12/04 09:35:04;;;;;;;64.33;22.73;;;1.30;99.90;;;;;;5086515;28;20449;-77
2022/12/04 09:37:32;;;;;;;42.20;22.03;;;1.30;99.90;;;;;;5086942;28;20111;-77
2022/12/04 09:39:57;;;;;;;42.97;21.83;;;1.40;99.90;;;;;;5087059;28;20043;-78
2022/12/04 09:42:41;;;;;;;53.07;24.63;;;1.50;99.90;;;;;;5085378;28;20036;-78
2022/12/04 09:45:14;;;;;;;54.03;24.00;;;1.50;99.90;;;;;;5086240;28;20067;-77
2022/12/04 09:47:45;;;;;;;41.80;22.00;;;1.60;99.90;;;;;;5087504;28;21178;-77
2022/12/04 09:50:21;;;;;;;87.23;22.63;;;1.60;99.90;;;;;;5087403;28;20032;-77
2022/12/04 09:53:14;;;;;;;58.17;22.10;;;1.60;99.90;;;;;;5086681;28;20032;-77
2022/12/04 09:55:46;;;;;;;69.53;21.23;;;1.60;99.90;;;;;;5087181;28;20392;-77
2022/12/04 09:58:20;;;;;;;55.83;21.53;;;1.70;99.90;;;;;;5090016;28;20028;-78
2022/12/04 10:00:48;;;;;;;51.97;24.77;;;1.70;99.90;;;;;;5091517;28;20020;-78
2022/12/04 10:03:20;;;;;;;48.13;24.97;;;1.60;99.90;;;;;;5090728;28;20024;-78
2022/12/04 10:06:04;;;;;;;42.73;21.97;;;1.70;99.90;;;;;;5090673;28;20036;-78
2022/12/04 10:08:41;;;;;;;45.63;23.40;;;1.70;99.90;;;;;;5091109;28;20119;-78
2022/12/04 10:11:21;;;;;;;66.73;29.80;;;1.70;99.90;;;;;;5088013;28;20110;-77
2022/12/04 10:14:06;;;;;;;52.00;28.20;;;1.80;99.90;;;;;;5091190;28;20369;-77
2022/12/04 10:16:37;;;;;;;41.27;24.27;;;1.80;99.90;;;;;;5090839;28;20376;-77
2022/12/04 10:19:32;;;;;;;93.60;49.70;;;1.80;99.90;;;;;;5091011;28;20093;-77
2022/12/04 10:22:27;;;;;;;45.47;26.27;;;1.80;99.90;;;;;;5090557;28;20134;-77
2022/12/04 10:25:00;;;;;;;38.30;20.60;;;1.80;99.90;;;;;;5091063;28;20027;-77
2022/12/04 10:27:41;;;;;;;48.57;28.33;;;1.90;99.90;;;;;;5090812;28;20027;-77
2022/12/04 10:30:18;;;;;;;36.27;21.40;;;1.80;99.90;;;;;;5091219;28;20048;-77
2022/12/04 10:32:45;;;;;;;40.27;21.10;;;1.90;99.90;;;;;;5089945;28;20020;-77
2022/12/04 10:35:28;;;;;;;42.80;21.60;;;1.90;99.90;;;;;;5090493;28;20020;-77
2022/12/04 10:38:03;;;;;;;44.80;24.10;;;1.90;99.90;;;;;;5089393;28;20016;-77
2022/12/04 10:40:34;;;;;;;46.43;24.50;;;1.90;99.90;;;;;;5090670;28;20638;-75
2022/12/04 10:43:30;;;;;;;47.23;27.40;;;1.90;99.90;;;;;;5091659;28;21391;-75
2022/12/04 10:45:57;;;;;;;51.57;29.10;;;2.00;99.90;;;;;;5091590;28;20027;-75
2022/12/04 10:48:30;;;;;;;42.30;23.50;;;2.00;99.90;;;;;;5091429;28;20020;-76
2022/12/04 10:50:55;;;;;;;42.30;22.73;;;2.00;99.90;;;;;;5090535;28;20031;-75
2022/12/04 10:53:32;;;;;;;42.07;24.13;;;2.00;99.90;;;;;;5090731;28;20099;-75
2022/12/04 10:56:25;;;;;;;41.33;23.47;;;2.00;99.90;;;;;;5090606;28;20517;-75
2022/12/04 10:58:59;;;;;;;43.20;21.20;;;2.10;99.90;;;;;;5091306;28;20032;-75
2022/12/04 11:01:27;;;;;;;40.07;22.23;;;2.10;99.90;;;;;;5090108;28;20024;-75
2022/12/04 11:04:00;;;;;;;43.50;23.47;;;2.10;99.90;;;;;;5089632;28;20419;-75
2022/12/04 11:06:27;;;;;;;40.93;22.40;;;2.10;99.90;;;;;;5089186;28;20029;-75
2022/12/04 11:08:53;;;;;;;42.63;21.93;;;2.10;99.90;;;;;;5090644;28;20020;-75
2022/12/04 11:11:34;;;;;;;43.50;23.00;;;2.10;99.90;;;;;;5089967;28;20032;-76
2022/12/04 11:14:14;;;;;;;43.63;24.00;;;2.10;99.90;;;;;;5091060;28;20118;-75
2022/12/04 11:16:44;;;;;;;45.77;23.30;;;2.00;99.90;;;;;;5089285;28;20036;-75
2022/12/04 11:19:24;;;;;;;47.23;24.00;;;2.00;99.90;;;;;;5090046;28;20040;-75
2022/12/04 11:21:53;;;;;;;41.83;22.87;;;2.00;99.90;;;;;;5089693;28;20028;-75
2022/12/04 11:24:22;;;;;;;42.63;23.37;;;2.00;99.90;;;;;;5090075;28;20069;-75
2022/12/04 11:26:48;;;;;;;39.93;22.30;;;2.00;99.90;;;;;;5089317;28;20380;-75
2022/12/04 11:29:16;;;;;;;42.37;23.30;;;2.10;99.90;;;;;;5090321;28;20012;-75
2022/12/04 11:31:47;;;;;;;39.33;22.40;;;2.10;99.90;;;;;;5090316;28;20031;-75
2022/12/04 11:34:18;;;;;;;40.27;23.13;;;2.10;99.90;;;;;;5091186;28;20064;-75
2022/12/04 11:36:56;;;;;;;43.60;23.30;;;2.10;99.90;;;;;;5090216;28;20024;-75
2022/12/04 11:39:35;;;;;;;43.83;23.90;;;2.10;99.90;;;;;;5091271;28;20058;-75
2022/12/04 11:42:05;;;;;;;39.40;21.97;;;2.20;99.90;;;;;;5088297;28;20113;-75
2022/12/04 11:44:35;;;;;;;47.30;24.97;;;2.20;99.90;;;;;;5094413;28;20391;-75
2022/12/04 11:47:02;;;;;;;41.23;22.30;;;2.20;99.90;;;;;;5094797;28;20018;-75
2022/12/04 11:49:30;;;;;;;41.20;22.23;;;2.20;99.90;;;;;;5094723;28;20020;-75
2022/12/04 11:52:14;;;;;;;38.10;21.13;;;2.20;99.90;;;;;;5095177;28;20046;-75
2022/12/04 11:55:02;;;;;;;42.97;22.83;;;2.20;99.90;;;;;;5094288;28;20035;-75
2022/12/04 11:57:49;;;;;;;40.73;21.90;;;2.20;99.90;;;;;;5094358;28;20027;-75
2022/12/04 12:00:19;;;;;;;49.07;25.37;;;2.20;99.90;;;;;;5093413;28;20020;-75
2022/12/04 12:02:54;;;;;;;59.13;32.77;;;2.20;99.90;;;;;;5093986;28;20102;-75
2022/12/04 12:05:43;;;;;;;50.10;26.05;;;2.20;99.90;;;;;;5093995;28;20031;-77
2022/12/04 12:08:19;;;;;;;49.07;25.00;;;2.20;99.90;;;;;;5089441;28;20020;-77
2022/12/04 12:10:48;;;;;;;47.10;25.53;;;2.20;99.90;;;;;;5093089;28;20024;-79
2022/12/04 12:13:32;;;;;;;46.73;25.40;;;2.20;99.90;;;;;;5092979;28;20058;-77
2022/12/04 12:16:02;;;;;;;45.43;24.63;;;2.20;99.90;;;;;;5090303;28;20016;-78
2022/12/04 12:19:11;;;;;;;45.50;23.63;;;2.30;99.90;;;;;;5088248;28;20137;-77
2022/12/04 12:22:01;;;;;;;51.80;25.70;;;2.30;99.90;;;;;;4988827;28;20030;-77
2022/12/04 12:24:56;;;;;;;51.20;26.47;;;2.30;99.90;;;;;;4989318;28;20030;-77
2022/12/04 12:27:59;;;;;;;49.67;25.53;;;2.30;99.90;;;;;;5062413;28;20042;-78
2022/12/04 12:30:28;;;;;;;47.30;25.00;;;2.30;99.90;;;;;;5089577;28;20441;-77
2022/12/04 12:33:13;;;;;;;44.03;23.80;;;2.30;99.90;;;;;;5091641;28;20028;-78
2022/12/04 12:36:01;;;;;;;56.65;25.88;;;2.30;99.90;;;;;;5091343;28;20024;-78
2022/12/04 12:38:33;;;;;;;43.70;25.57;;;2.40;99.90;;;;;;5089398;28;20035;-78
2022/12/04 12:41:27;;;;;;;62.67;24.83;;;2.40;99.90;;;;;;5089176;28;20103;-78
2022/12/04 12:44:03;;;;;;;52.10;24.57;;;2.40;99.90;;;;;;5091410;27;20039;-78
2022/12/04 12:46:47;;;;;;;;;;;2.40;99.90;;;;;;5090943;28;20027;-78
2022/12/04 12:49:28;;;;;;;55.80;23.77;;;2.40;99.90;;;;;;5092616;28;19911;-78
2022/12/04 12:52:00;;;;;;;44.90;23.47;;;2.40;99.90;;;;;;5090402;28;20027;-78
2022/12/04 12:54:37;;;;;;;53.77;25.33;;;2.50;99.90;;;;;;5088150;28;20062;-78
2022/12/04 12:57:17;;;;;;;64.93;25.87;;;2.50;99.90;;;;;;5088985;28;20033;-78
2022/12/04 13:00:14;;;;;;;50.23;26.00;;;2.50;99.90;;;;;;5089101;28;20032;-78
2022/12/04 13:02:59;;;;;;;55.83;25.67;;;2.50;99.90;;;;;;5087172;28;20048;-78
2022/12/04 13:05:47;;;;;;;59.07;26.43;;;2.40;99.90;;;;;;5087623;28;20831;-78
2022/12/04 13:08:24;;;;;;;52.90;26.00;;;2.50;99.90;;;;;;5084939;28;20039;-79
2022/12/04 13:11:18;;;;;;;53.23;25.27;;;2.50;99.90;;;;;;5085497;28;20035;-79
2022/12/04 13:13:54;;;;;;;45.87;24.30;;;2.50;99.90;;;;;;5085223;28;20028;-79